createdAt,value
2016-12-29T00:00:05.212Z,20
2016-12-29T00:02:05.232Z,20
2016-12-29T00:04:04.933Z,20
2016-12-29T00:06:04.639Z,20
2016-12-29T00:08:05.531Z,20
2016-12-29T00:10:05.306Z,20
2016-12-29T00:12:10.083Z,20
2016-12-29T00:14:05.228Z,20
2016-12-29T00:16:04.989Z,20
2016-12-29T00:18:04.934Z,20
2016-12-29T00:20:04.748Z,20
2016-12-29T00:22:05.419Z,20
2016-12-29T00:24:05.246Z,20
2016-12-29T00:26:05.100Z,20
2016-12-29T00:28:07.866Z,20
2016-12-29T00:30:05.612Z,20
2016-12-29T00:32:04.835Z,20
2016-12-29T00:34:05.585Z,20
2016-12-29T00:36:05.282Z,20
2016-12-29T00:38:05.028Z,20
2016-12-29T00:40:05.087Z,20
2016-12-29T00:42:04.841Z,20
2016-12-29T00:44:05.105Z,20
2016-12-29T00:46:07.446Z,20
2016-12-29T00:48:04.824Z,20
2016-12-29T00:50:05.939Z,20
2016-12-29T00:52:04.755Z,20
2016-12-29T00:54:08.049Z,20
2016-12-29T00:56:05.785Z,20
2016-12-29T00:58:05.600Z,20
2016-12-29T01:00:05.343Z,20
2016-12-29T01:02:05.313Z,20
2016-12-29T01:04:05.017Z,20
2016-12-29T01:06:05.261Z,20
2016-12-29T01:08:05.228Z,20
2016-12-29T01:10:07.657Z,20
2016-12-29T01:12:05.484Z,20
2016-12-29T01:14:08.023Z,20
2016-12-29T01:16:04.747Z,19.9
2016-12-29T01:18:04.714Z,19.9
2016-12-29T01:20:05.480Z,19.9
2016-12-29T01:22:05.187Z,20
2016-12-29T01:24:04.879Z,19.9
2016-12-29T01:26:05.186Z,19.9
2016-12-29T01:28:07.649Z,19.9
2016-12-29T01:30:07.840Z,19.9
2016-12-29T01:32:05.757Z,19.9
2016-12-29T01:34:13.075Z,19.9
2016-12-29T01:36:04.774Z,19.9
2016-12-29T01:38:05.356Z,20
2016-12-29T01:40:07.562Z,20
2016-12-29T01:42:05.255Z,19.9
2016-12-29T01:44:05.334Z,20
2016-12-29T01:46:05.101Z,19.9
2016-12-29T01:48:04.835Z,19.9
2016-12-29T01:50:05.632Z,19.9
2016-12-29T01:52:05.405Z,20
2016-12-29T01:54:04.667Z,20
2016-12-29T01:56:05.566Z,20
2016-12-29T01:58:05.284Z,20
2016-12-29T02:00:05.945Z,19.9
2016-12-29T02:02:07.581Z,19.9
2016-12-29T02:04:04.872Z,19.9
2016-12-29T02:06:05.113Z,19.9
2016-12-29T02:08:05.117Z,19.9
2016-12-29T02:10:04.857Z,19.9
2016-12-29T02:12:07.719Z,19.9
2016-12-29T02:14:05.200Z,19.9
2016-12-29T02:16:05.268Z,19.9
2016-12-29T02:18:05.196Z,19.9
2016-12-29T02:20:05.312Z,19.9
2016-12-29T02:22:05.070Z,19.9
2016-12-29T02:24:04.865Z,19.9
2016-12-29T02:26:05.770Z,19.9
2016-12-29T02:28:05.479Z,19.9
2016-12-29T02:30:05.210Z,19.9
2016-12-29T02:32:05.862Z,19.9
2016-12-29T02:34:04.737Z,19.9
2016-12-29T02:36:07.968Z,19.8
2016-12-29T02:38:05.463Z,19.8
2016-12-29T02:40:05.242Z,19.8
2016-12-29T02:42:04.970Z,19.8
2016-12-29T02:44:04.778Z,19.8
2016-12-29T02:46:05.518Z,19.8
2016-12-29T02:48:05.410Z,19.8
2016-12-29T02:50:15.654Z,19.8
2016-12-29T02:52:05.399Z,19.9
2016-12-29T02:54:05.072Z,19.8
2016-12-29T02:56:04.971Z,19.8
2016-12-29T02:58:07.718Z,19.8
2016-12-29T03:00:05.441Z,19.8
2016-12-29T03:02:05.158Z,19.8
2016-12-29T03:04:07.716Z,19.8
2016-12-29T03:06:05.459Z,19.8
2016-12-29T03:08:05.539Z,19.8
2016-12-29T03:10:10.274Z,19.8
2016-12-29T03:12:05.154Z,19.8
2016-12-29T03:14:05.014Z,19.8
2016-12-29T03:16:04.725Z,19.8
2016-12-29T03:18:04.821Z,19.8
2016-12-29T03:20:05.110Z,19.8
2016-12-29T03:22:07.671Z,19.8
2016-12-29T03:24:05.399Z,19.8
2016-12-29T03:26:04.666Z,19.8
2016-12-29T03:28:05.603Z,19.8
2016-12-29T03:30:04.806Z,19.8
2016-12-29T03:32:05.177Z,19.8
2016-12-29T03:34:06.100Z,19.8
2016-12-29T03:36:10.145Z,19.8
2016-12-29T03:38:10.458Z,19.8
2016-12-29T03:40:05.198Z,19.8
2016-12-29T03:42:05.931Z,19.8
2016-12-29T03:44:07.355Z,19.8
2016-12-29T03:46:05.043Z,19.8
2016-12-29T03:48:05.076Z,19.8
2016-12-29T03:50:10.660Z,19.8
2016-12-29T03:52:05.616Z,19.8
2016-12-29T03:54:05.325Z,19.8
2016-12-29T03:56:10.079Z,19.8
2016-12-29T03:58:12.386Z,19.8
2016-12-29T04:00:05.577Z,19.8
2016-12-29T04:02:05.394Z,19.8
2016-12-29T04:04:05.102Z,19.8
2016-12-29T04:06:07.870Z,19.8
2016-12-29T04:08:07.766Z,19.7
2016-12-29T04:10:04.998Z,19.8
2016-12-29T04:12:04.742Z,19.8
2016-12-29T04:14:08.129Z,19.8
2016-12-29T04:16:04.853Z,19.8
2016-12-29T04:18:04.849Z,19.8
2016-12-29T04:20:05.757Z,19.7
2016-12-29T04:22:05.528Z,19.8
2016-12-29T04:24:05.030Z,19.8
2016-12-29T04:26:05.142Z,19.8
2016-12-29T04:28:04.869Z,19.8
2016-12-29T04:30:05.589Z,19.8
2016-12-29T04:32:05.325Z,19.8
2016-12-29T04:34:07.567Z,19.8
2016-12-29T04:36:05.672Z,19.8
2016-12-29T04:38:08.225Z,19.8
2016-12-29T04:40:05.338Z,19.8
2016-12-29T04:42:06.301Z,19.8
2016-12-29T04:44:05.382Z,19.8
2016-12-29T04:46:08.405Z,19.8
2016-12-29T04:48:07.874Z,19.8
2016-12-29T04:50:08.259Z,19.8
2016-12-29T04:52:07.288Z,19.8
2016-12-29T04:54:10.332Z,19.8
2016-12-29T04:56:05.623Z,19.8
2016-12-29T04:58:05.530Z,19.8
2016-12-29T05:00:05.471Z,19.8
2016-12-29T05:02:05.301Z,19.8
2016-12-29T05:04:07.534Z,19.8
2016-12-29T05:06:04.746Z,19.8
2016-12-29T05:08:05.514Z,19.8
2016-12-29T05:10:07.732Z,19.8
2016-12-29T05:12:13.182Z,19.8
2016-12-29T05:14:05.010Z,19.8
2016-12-29T05:16:05.323Z,19.8
2016-12-29T05:18:07.804Z,19.8
2016-12-29T05:20:05.092Z,19.8
2016-12-29T05:22:04.794Z,19.8
2016-12-29T05:24:05.510Z,19.8
2016-12-29T05:26:05.878Z,19.8
2016-12-29T05:28:05.616Z,19.8
2016-12-29T05:30:10.380Z,19.8
2016-12-29T05:32:10.280Z,19.8
2016-12-29T05:34:05.028Z,19.8
2016-12-29T05:36:05.247Z,19.8
2016-12-29T05:38:15.278Z,19.8
2016-12-29T05:40:04.987Z,19.8
2016-12-29T05:42:07.233Z,19.8
2016-12-29T05:44:05.335Z,19.8
2016-12-29T05:46:05.027Z,19.8
2016-12-29T05:48:07.287Z,19.8
2016-12-29T05:50:05.173Z,19.8
2016-12-29T05:52:04.895Z,19.8
2016-12-29T05:54:08.237Z,19.8
2016-12-29T05:56:07.812Z,19.8
2016-12-29T05:58:05.497Z,19.8
2016-12-29T06:00:05.374Z,19.8
2016-12-29T06:02:05.117Z,19.8
2016-12-29T06:04:09.989Z,19.8
2016-12-29T06:06:05.241Z,19.8
2016-12-29T06:08:07.670Z,19.8
2016-12-29T06:10:05.396Z,19.8
2016-12-29T06:12:05.135Z,19.8
2016-12-29T06:14:04.867Z,19.8
2016-12-29T06:16:05.895Z,19.8
2016-12-29T06:18:05.378Z,19.8
2016-12-29T06:20:05.596Z,19.8
2016-12-29T06:22:05.401Z,19.8
2016-12-29T06:24:07.643Z,19.8
2016-12-29T06:26:05.538Z,19.8
2016-12-29T06:28:05.269Z,19.8
2016-12-29T06:30:05.031Z,19.8
2016-12-29T06:32:05.462Z,19.8
2016-12-29T06:34:05.166Z,19.8
2016-12-29T06:36:04.916Z,19.8
2016-12-29T06:38:07.191Z,19.8
2016-12-29T06:40:04.924Z,19.8
2016-12-29T06:42:05.233Z,19.8
2016-12-29T06:44:08.515Z,19.8
2016-12-29T06:46:12.862Z,19.8
2016-12-29T06:48:05.558Z,19.8
2016-12-29T06:50:05.650Z,19.8
2016-12-29T06:52:05.412Z,19.8
2016-12-29T06:54:07.680Z,19.8
2016-12-29T06:56:05.594Z,19.8
2016-12-29T06:58:07.836Z,19.8
2016-12-29T07:00:08.069Z,19.8
2016-12-29T07:02:07.360Z,19.8
2016-12-29T07:04:05.169Z,19.8
2016-12-29T07:06:07.446Z,19.8
2016-12-29T07:08:05.080Z,19.8
2016-12-29T07:10:04.784Z,19.8
2016-12-29T07:12:08.131Z,19.8
2016-12-29T07:14:15.134Z,19.8
2016-12-29T07:16:04.856Z,19.8
2016-12-29T07:18:05.398Z,19.8
2016-12-29T07:20:05.442Z,19.8
2016-12-29T07:22:05.163Z,19.8
2016-12-29T07:24:04.915Z,19.8
2016-12-29T07:26:08.506Z,19.8
2016-12-29T07:28:05.176Z,19.8
2016-12-29T07:30:05.420Z,19.8
2016-12-29T07:32:04.956Z,19.8
2016-12-29T07:34:04.684Z,19.8
2016-12-29T07:36:05.683Z,19.8
2016-12-29T07:38:08.090Z,19.7
2016-12-29T07:40:04.808Z,19.8
2016-12-29T07:42:08.057Z,19.8
2016-12-29T07:44:05.121Z,19.8
2016-12-29T07:46:04.826Z,19.8
2016-12-29T07:48:05.536Z,19.8
2016-12-29T07:50:05.417Z,19.8
2016-12-29T07:52:05.448Z,19.8
2016-12-29T07:54:05.118Z,19.8
2016-12-29T07:56:04.995Z,19.8
2016-12-29T07:58:04.769Z,19.9
2016-12-29T08:00:05.180Z,19.9
2016-12-29T08:02:05.005Z,19.9
2016-12-29T08:04:04.687Z,19.9
2016-12-29T08:06:05.426Z,20
2016-12-29T08:08:05.559Z,20
2016-12-29T08:10:05.351Z,20
2016-12-29T08:12:05.095Z,20.1
2016-12-29T08:14:05.231Z,20.2
2016-12-29T08:16:05.053Z,20.2
2016-12-29T08:18:07.510Z,20.4
2016-12-29T08:20:07.831Z,20.4
2016-12-29T08:22:05.565Z,20.4
2016-12-29T08:24:05.379Z,20.5
2016-12-29T08:26:05.142Z,20.5
2016-12-29T08:28:04.888Z,20.6
2016-12-29T08:30:10.167Z,20.6
2016-12-29T08:32:05.570Z,20.6
2016-12-29T08:34:10.356Z,20.6
2016-12-29T08:36:07.648Z,20.7
2016-12-29T08:38:05.688Z,20.7
2016-12-29T08:40:05.549Z,20.6
2016-12-29T08:42:05.257Z,20.6
2016-12-29T08:44:04.991Z,20.6
2016-12-29T08:46:05.465Z,20.6
2016-12-29T08:48:05.232Z,20.6
2016-12-29T08:50:05.186Z,20.6
2016-12-29T08:52:05.478Z,20.7
2016-12-29T08:54:10.321Z,20.7
2016-12-29T08:56:05.778Z,20.7
2016-12-29T08:58:05.457Z,20.7
2016-12-29T09:00:05.189Z,20.7
2016-12-29T09:02:07.492Z,20.9
2016-12-29T09:04:05.198Z,20.8
2016-12-29T09:06:07.415Z,21
2016-12-29T09:08:05.459Z,20.9
2016-12-29T09:10:05.238Z,21
2016-12-29T09:12:05.426Z,21.1
2016-12-29T09:14:05.335Z,21.1
2016-12-29T09:16:10.155Z,21.1
2016-12-29T09:18:07.612Z,21.1
2016-12-29T09:20:05.399Z,21.1
2016-12-29T09:22:05.093Z,21
2016-12-29T09:24:04.836Z,21
2016-12-29T09:26:05.995Z,20.9
2016-12-29T09:28:04.885Z,20.9
2016-12-29T09:30:05.550Z,20.8
2016-12-29T09:32:05.532Z,20.8
2016-12-29T09:34:05.292Z,20.7
2016-12-29T09:36:05.040Z,20.7
2016-12-29T09:38:09.845Z,20.6
2016-12-29T09:40:05.556Z,20.6
2016-12-29T09:42:04.835Z,20.5
2016-12-29T09:44:05.942Z,20.5
2016-12-29T09:46:04.738Z,20.5
2016-12-29T09:48:05.435Z,20.5
2016-12-29T09:50:05.495Z,20.5
2016-12-29T09:52:05.260Z,20.5
2016-12-29T09:54:04.942Z,20.5
2016-12-29T09:56:05.256Z,20.4
2016-12-29T09:58:04.976Z,20.4
2016-12-29T10:00:04.976Z,20.4
2016-12-29T10:02:05.515Z,20.4
2016-12-29T10:04:05.216Z,20.4
2016-12-29T10:06:04.927Z,20.4
2016-12-29T10:08:05.010Z,20.3
2016-12-29T10:10:07.321Z,20.3
2016-12-29T10:12:08.141Z,20.3
2016-12-29T10:14:04.937Z,20.3
2016-12-29T10:16:04.700Z,20.3
2016-12-29T10:18:05.601Z,20.3
2016-12-29T10:20:05.528Z,20.3
2016-12-29T10:22:05.217Z,20.3
2016-12-29T10:24:04.971Z,20.3
2016-12-29T10:26:09.810Z,20.3
2016-12-29T10:28:05.571Z,20.3
2016-12-29T10:30:05.391Z,20.3
2016-12-29T10:32:05.107Z,20.2
2016-12-29T10:34:04.829Z,20.2
2016-12-29T10:36:05.599Z,20.2
2016-12-29T10:38:07.983Z,20.2
2016-12-29T10:40:04.667Z,20.2
2016-12-29T10:42:05.356Z,20.2
2016-12-29T10:44:05.707Z,20.2
2016-12-29T10:46:05.455Z,20.2
2016-12-29T10:48:05.256Z,20.2
2016-12-29T10:50:05.132Z,20.2
2016-12-29T10:52:04.839Z,20.2
2016-12-29T10:54:09.662Z,20.1
2016-12-29T10:56:05.319Z,20.2
2016-12-29T10:58:05.196Z,20.2
2016-12-29T11:00:09.940Z,20.1
2016-12-29T11:02:04.840Z,20.1
2016-12-29T11:04:05.215Z,20.1
2016-12-29T11:06:04.923Z,20.1
2016-12-29T11:08:07.182Z,20.1
2016-12-29T11:10:12.494Z,20.1
2016-12-29T11:12:05.201Z,20.1
2016-12-29T11:14:05.235Z,20.1
2016-12-29T11:16:04.976Z,20.1
2016-12-29T11:18:07.969Z,20.1
2016-12-29T11:20:05.570Z,20.1
2016-12-29T11:22:05.572Z,20.1
2016-12-29T11:24:05.277Z,20.1
2016-12-29T11:26:07.683Z,20.1
2016-12-29T11:28:05.442Z,20.1
2016-12-29T11:30:04.694Z,20.1
2016-12-29T11:32:05.297Z,20.1
2016-12-29T11:34:05.562Z,20.1
2016-12-29T11:36:05.416Z,20.1
2016-12-29T11:38:07.793Z,20.2
2016-12-29T11:40:08.029Z,20.2
2016-12-29T11:42:04.727Z,20.1
2016-12-29T11:44:05.017Z,20.2
2016-12-29T11:46:04.909Z,20.1
2016-12-29T11:48:08.122Z,20.2
2016-12-29T11:50:07.563Z,20.2
2016-12-29T11:52:04.914Z,20.2
2016-12-29T11:54:04.596Z,20.2
2016-12-29T11:56:05.376Z,20.2
2016-12-29T11:58:07.664Z,20.2
2016-12-29T12:00:05.396Z,20.2
2016-12-29T12:02:05.217Z,20.2
2016-12-29T12:04:04.973Z,20.2
2016-12-29T12:06:04.663Z,20.2
2016-12-29T12:08:05.294Z,20.2
2016-12-29T12:10:05.175Z,20.2
2016-12-29T12:12:05.121Z,20.3
2016-12-29T12:14:10.040Z,20.3
2016-12-29T12:16:04.734Z,20.3
2016-12-29T12:18:09.722Z,20.3
2016-12-29T12:20:05.315Z,20.3
2016-12-29T12:22:07.680Z,20.3
2016-12-29T12:24:05.765Z,20.3
2016-12-29T12:26:05.744Z,20.3
2016-12-29T12:28:07.572Z,20.4
2016-12-29T12:30:05.276Z,20.3
2016-12-29T12:32:05.500Z,20.3
2016-12-29T12:34:05.192Z,20.3
2016-12-29T12:36:04.982Z,20.4
2016-12-29T12:38:09.770Z,20.4
2016-12-29T12:40:05.820Z,20.4
2016-12-29T12:42:05.525Z,20.4
2016-12-29T12:44:10.458Z,20.4
2016-12-29T12:46:04.656Z,20.4
2016-12-29T12:48:07.850Z,20.4
2016-12-29T12:50:05.820Z,20.4
2016-12-29T12:52:05.472Z,20.4
2016-12-29T12:54:04.722Z,20.4
2016-12-29T12:56:05.787Z,20.4
2016-12-29T12:58:07.221Z,20.4
2016-12-29T13:00:04.952Z,20.4
2016-12-29T13:02:04.845Z,20.5
2016-12-29T13:04:13.186Z,20.5
2016-12-29T13:06:12.502Z,20.6
2016-12-29T13:08:05.640Z,20.6
2016-12-29T13:10:07.875Z,20.7
2016-12-29T13:12:05.593Z,20.6
2016-12-29T13:14:05.580Z,20.7
2016-12-29T13:16:05.319Z,20.7
2016-12-29T13:18:04.872Z,20.7
2016-12-29T13:20:04.979Z,20.8
2016-12-29T13:22:04.766Z,20.7
2016-12-29T13:24:05.574Z,20.7
2016-12-29T13:26:04.844Z,20.7
2016-12-29T13:28:05.914Z,20.7
2016-12-29T13:30:04.594Z,20.6
2016-12-29T13:32:08.183Z,20.6
2016-12-29T13:34:12.478Z,20.6
2016-12-29T13:36:05.297Z,20.6
2016-12-29T13:38:05.882Z,20.6
2016-12-29T13:40:05.593Z,20.6
2016-12-29T13:42:05.321Z,20.6
2016-12-29T13:44:05.759Z,20.6
2016-12-29T13:46:07.965Z,20.6
2016-12-29T13:48:04.651Z,20.6
2016-12-29T13:50:08.222Z,20.6
2016-12-29T13:52:05.472Z,20.6
2016-12-29T13:54:05.180Z,20.6
2016-12-29T13:56:07.615Z,20.6
2016-12-29T13:58:07.873Z,20.6
2016-12-29T14:00:05.584Z,20.6
2016-12-29T14:02:05.434Z,20.6
2016-12-29T14:04:06.173Z,20.6
2016-12-29T14:06:04.977Z,20.6
2016-12-29T14:08:07.268Z,20.6
2016-12-29T14:10:04.930Z,20.6
2016-12-29T14:12:05.154Z,20.6
2016-12-29T14:14:04.923Z,20.6
2016-12-29T14:16:05.520Z,20.6
2016-12-29T14:18:05.392Z,20.6
2016-12-29T14:20:05.180Z,20.6
2016-12-29T14:22:09.968Z,20.5
2016-12-29T14:24:05.173Z,20.5
2016-12-29T14:26:05.035Z,20.5
2016-12-29T14:28:07.416Z,20.3
2016-12-29T14:30:05.137Z,20.3
2016-12-29T14:32:05.258Z,20.2
2016-12-29T14:34:05.029Z,20.2
2016-12-29T14:36:04.734Z,20.2
2016-12-29T14:38:04.866Z,20.1
2016-12-29T14:40:04.822Z,20.1
2016-12-29T14:42:05.148Z,20
2016-12-29T14:44:05.027Z,20
2016-12-29T14:46:04.968Z,19.9
2016-12-29T14:48:05.420Z,20
2016-12-29T14:50:05.711Z,20
2016-12-29T14:52:08.010Z,20
2016-12-29T14:54:04.721Z,19.9
2016-12-29T14:56:04.926Z,20
2016-12-29T14:58:04.745Z,20.1
2016-12-29T15:00:05.028Z,20.1
2016-12-29T15:02:05.170Z,20.1
2016-12-29T15:04:05.012Z,20.1
2016-12-29T15:06:04.779Z,20.1
2016-12-29T15:08:05.997Z,20.1
2016-12-29T15:10:07.256Z,20.1
2016-12-29T15:12:04.939Z,20.1
2016-12-29T15:14:07.761Z,20.2
2016-12-29T15:16:07.572Z,20.2
2016-12-29T15:18:05.500Z,20.1
2016-12-29T15:20:05.000Z,20.2
2016-12-29T15:22:04.968Z,20.1
2016-12-29T15:24:04.737Z,20.1
2016-12-29T15:26:05.667Z,20.1
2016-12-29T15:28:05.442Z,20.1
2016-12-29T15:30:05.193Z,20.1
2016-12-29T15:32:08.380Z,20.1
2016-12-29T15:34:05.131Z,20.1
2016-12-29T15:36:05.025Z,20.1
2016-12-29T15:38:04.777Z,20.1
2016-12-29T15:40:08.029Z,20.1
2016-12-29T15:42:04.732Z,20.1
2016-12-29T15:44:05.563Z,20.1
2016-12-29T15:46:04.893Z,20.2
2016-12-29T15:48:05.627Z,20.1
2016-12-29T15:50:05.581Z,20.2
2016-12-29T15:52:05.718Z,20.1
2016-12-29T15:54:05.449Z,20.1
2016-12-29T15:56:05.345Z,20.1
2016-12-29T15:58:05.095Z,20.1
2016-12-29T16:00:04.807Z,20.1
2016-12-29T16:02:10.935Z,20.1
2016-12-29T16:04:04.738Z,20.1
2016-12-29T16:06:05.465Z,20.1
2016-12-29T16:08:05.507Z,20.1
2016-12-29T16:10:04.716Z,20.1
2016-12-29T16:12:05.407Z,20
2016-12-29T16:14:05.438Z,20.1
2016-12-29T16:16:04.762Z,20
2016-12-29T16:18:05.158Z,20.1
2016-12-29T16:20:05.000Z,20.1
2016-12-29T16:22:05.244Z,20.1
2016-12-29T16:24:05.165Z,20.1
2016-12-29T16:26:05.253Z,20.1
2016-12-29T16:28:04.987Z,20.1
2016-12-29T16:30:05.524Z,20
2016-12-29T16:32:08.103Z,20.1
2016-12-29T16:34:07.896Z,20.1
2016-12-29T16:36:05.125Z,20
2016-12-29T16:38:05.392Z,20.1
2016-12-29T16:40:05.238Z,20.1
2016-12-29T16:42:04.911Z,20.1
2016-12-29T16:44:05.969Z,20
2016-12-29T16:46:05.185Z,20.1
2016-12-29T16:48:04.931Z,20.1
2016-12-29T16:50:05.005Z,20
2016-12-29T16:52:07.746Z,20.1
2016-12-29T16:54:05.479Z,20
2016-12-29T16:56:05.040Z,20
2016-12-29T16:58:08.005Z,20
2016-12-29T17:00:07.233Z,20
2016-12-29T17:02:04.934Z,20
2016-12-29T17:04:05.166Z,20
2016-12-29T17:06:04.916Z,20
2016-12-29T17:08:04.972Z,20
2016-12-29T17:10:07.320Z,20
2016-12-29T17:12:05.027Z,20
2016-12-29T17:14:07.574Z,20
2016-12-29T17:16:05.245Z,20
2016-12-29T17:18:05.183Z,20
2016-12-29T17:20:05.250Z,20
2016-12-29T17:22:04.928Z,20
2016-12-29T17:24:04.627Z,20
2016-12-29T17:26:07.863Z,20.1
2016-12-29T17:28:05.684Z,20.1
2016-12-29T17:30:05.410Z,20.1
2016-12-29T17:32:07.676Z,20.2
2016-12-29T17:34:05.418Z,20.2
2016-12-29T17:36:05.154Z,20.2
2016-12-29T17:38:07.420Z,20.2
2016-12-29T17:40:10.178Z,20.3
2016-12-29T17:42:05.094Z,20.3
2016-12-29T17:44:07.691Z,20.3
2016-12-29T17:46:05.686Z,20.3
2016-12-29T17:48:05.376Z,20.4
2016-12-29T17:50:13.265Z,20.4
2016-12-29T17:52:05.163Z,20.4
2016-12-29T17:54:05.208Z,20.4
2016-12-29T17:56:07.468Z,20.4
2016-12-29T17:58:05.539Z,20.4
2016-12-29T18:00:11.870Z,20.5
2016-12-29T18:02:05.135Z,20.5
2016-12-29T18:04:05.210Z,20.5
2016-12-29T18:06:05.035Z,20.5
2016-12-29T18:08:07.778Z,20.5
2016-12-29T18:10:05.879Z,20.5
2016-12-29T18:12:05.691Z,20.5
2016-12-29T18:14:07.900Z,20.5
2016-12-29T18:16:09.931Z,20.5
2016-12-29T18:18:05.397Z,20.5
2016-12-29T18:20:05.119Z,20.5
2016-12-29T18:22:05.167Z,20.4
2016-12-29T18:24:10.510Z,20.4
2016-12-29T18:26:05.283Z,20.4
2016-12-29T18:28:05.191Z,20.4
2016-12-29T18:30:04.902Z,20.4
2016-12-29T18:32:05.707Z,20.4
2016-12-29T18:34:12.852Z,20.3
2016-12-29T18:36:17.735Z,20.3
2016-12-29T18:38:06.182Z,20.3
2016-12-29T18:40:07.836Z,20.3
2016-12-29T18:42:08.139Z,20.3
2016-12-29T18:44:04.851Z,20.3
2016-12-29T18:46:05.446Z,20.3
2016-12-29T18:48:05.586Z,20.3
2016-12-29T18:50:07.908Z,20.2
2016-12-29T18:52:04.892Z,20.2
2016-12-29T18:54:04.611Z,20.3
2016-12-29T18:56:05.345Z,20.2
2016-12-29T18:58:05.227Z,20.2
2016-12-29T19:00:05.497Z,20.2
2016-12-29T19:02:05.210Z,20.2
2016-12-29T19:04:05.152Z,20.2
2016-12-29T19:06:07.582Z,20.2
2016-12-29T19:08:05.390Z,20.2
2016-12-29T19:10:05.255Z,20.2
2016-12-29T19:12:07.666Z,20.2
2016-12-29T19:14:05.525Z,20.2
2016-12-29T19:16:05.797Z,20.2
2016-12-29T19:18:04.862Z,20.2
2016-12-29T19:20:07.922Z,20.1
2016-12-29T19:22:07.325Z,20.1
2016-12-29T19:24:07.673Z,20.1
2016-12-29T19:26:04.997Z,20.1
2016-12-29T19:28:05.420Z,20.1
2016-12-29T19:30:07.271Z,20.1
2016-12-29T19:32:04.999Z,20.1
2016-12-29T19:34:05.149Z,20.1
2016-12-29T19:36:04.928Z,20.1
2016-12-29T19:38:04.602Z,20.1
2016-12-29T19:40:07.944Z,20.1
2016-12-29T19:42:07.270Z,20.1
2016-12-29T19:44:05.003Z,20.1
2016-12-29T19:46:05.056Z,20.1
2016-12-29T19:48:04.950Z,20.1
2016-12-29T19:50:04.742Z,20.1
2016-12-29T19:52:05.400Z,20.1
2016-12-29T19:54:05.102Z,20.1
2016-12-29T19:56:07.349Z,20
2016-12-29T19:58:07.665Z,20.1
2016-12-29T20:00:07.894Z,20.1
2016-12-29T20:02:05.167Z,20
2016-12-29T20:04:05.081Z,20.1
2016-12-29T20:06:05.042Z,20
2016-12-29T20:08:05.407Z,20
2016-12-29T20:10:05.139Z,20
2016-12-29T20:12:05.894Z,20
2016-12-29T20:14:04.830Z,20
2016-12-29T20:16:05.372Z,20
2016-12-29T20:18:04.860Z,20
2016-12-29T20:20:05.599Z,20
2016-12-29T20:22:10.549Z,20
2016-12-29T20:24:05.366Z,20
2016-12-29T20:26:10.152Z,20
2016-12-29T20:28:10.186Z,20
2016-12-29T20:30:04.899Z,20
2016-12-29T20:32:04.699Z,20
2016-12-29T20:34:05.814Z,20
2016-12-29T20:36:05.527Z,20
2016-12-29T20:38:04.759Z,20
2016-12-29T20:40:10.658Z,20
2016-12-29T20:42:08.539Z,20
2016-12-29T20:44:05.250Z,20
2016-12-29T20:46:08.362Z,20
2016-12-29T20:48:05.047Z,20
2016-12-29T20:50:04.951Z,20
2016-12-29T20:52:05.555Z,20
2016-12-29T20:54:05.274Z,20
2016-12-29T20:56:10.448Z,20
2016-12-29T20:58:05.007Z,20
2016-12-29T21:00:05.213Z,20
2016-12-29T21:02:04.890Z,20
2016-12-29T21:04:05.707Z,20
2016-12-29T21:06:05.504Z,20
2016-12-29T21:08:09.793Z,20
2016-12-29T21:10:05.913Z,20
2016-12-29T21:12:05.232Z,20
2016-12-29T21:14:05.939Z,20
2016-12-29T21:16:05.312Z,20
2016-12-29T21:18:05.301Z,20
2016-12-29T21:20:10.151Z,19.9
2016-12-29T21:22:07.991Z,19.9
2016-12-29T21:24:05.173Z,19.9
2016-12-29T21:26:05.182Z,20
2016-12-29T21:28:05.275Z,19.9
2016-12-29T21:30:05.666Z,19.9
2016-12-29T21:32:05.381Z,19.9
2016-12-29T21:34:05.297Z,20
2016-12-29T21:36:05.280Z,20
2016-12-29T21:38:04.714Z,20
2016-12-29T21:40:08.140Z,20
2016-12-29T21:42:04.898Z,19.9
2016-12-29T21:44:05.987Z,19.9
2016-12-29T21:46:07.423Z,19.9
2016-12-29T21:48:04.681Z,19.9
2016-12-29T21:50:06.440Z,20
2016-12-29T21:52:05.171Z,19.9
2016-12-29T21:54:05.124Z,19.9
2016-12-29T21:56:04.912Z,19.9
2016-12-29T21:58:04.967Z,19.9
2016-12-29T22:00:04.720Z,19.9
2016-12-29T22:02:05.510Z,19.9
2016-12-29T22:04:18.195Z,19.9
2016-12-29T22:06:07.485Z,19.9
2016-12-29T22:08:05.282Z,19.9
2016-12-29T22:10:23.064Z,19.9
2016-12-29T22:12:04.823Z,19.9
2016-12-29T22:14:05.620Z,19.9
2016-12-29T22:16:09.874Z,20
2016-12-29T22:18:04.797Z,19.9
2016-12-29T22:20:05.480Z,19.9
2016-12-29T22:22:07.870Z,19.9
2016-12-29T22:24:05.113Z,19.9
2016-12-29T22:26:04.819Z,19.9
2016-12-29T22:28:05.497Z,19.9
2016-12-29T22:30:05.457Z,19.9
2016-12-29T22:32:05.288Z,19.9
2016-12-29T22:34:05.499Z,19.9
2016-12-29T22:36:05.193Z,19.9
2016-12-29T22:38:10.179Z,19.9
2016-12-29T22:40:04.985Z,19.9
2016-12-29T22:42:07.247Z,19.9
2016-12-29T22:44:05.069Z,19.9
2016-12-29T22:46:07.958Z,19.9
2016-12-29T22:48:04.857Z,19.9
2016-12-29T22:50:05.573Z,19.9
2016-12-29T22:52:05.355Z,19.9
2016-12-29T22:54:05.076Z,19.9
2016-12-29T22:56:04.819Z,19.9
2016-12-29T22:58:05.393Z,19.9
2016-12-29T23:00:05.359Z,19.9
2016-12-29T23:02:05.073Z,19.9
2016-12-29T23:04:05.135Z,19.9
2016-12-29T23:06:04.901Z,19.9
2016-12-29T23:08:07.123Z,19.9
2016-12-29T23:10:05.414Z,19.9
2016-12-29T23:12:05.132Z,19.9
2016-12-29T23:14:04.890Z,19.9
2016-12-29T23:16:05.147Z,19.9
2016-12-29T23:18:05.143Z,19.9
2016-12-29T23:20:10.772Z,19.9
2016-12-29T23:22:10.920Z,19.9
2016-12-29T23:24:04.715Z,19.9
2016-12-29T23:26:05.455Z,19.9
2016-12-29T23:28:05.548Z,20
2016-12-29T23:30:04.792Z,20
2016-12-29T23:32:05.532Z,20
2016-12-29T23:34:10.685Z,20
2016-12-29T23:36:05.579Z,20
2016-12-29T23:38:07.869Z,20
2016-12-29T23:40:05.878Z,20
2016-12-29T23:42:09.772Z,20.1
2016-12-29T23:44:05.060Z,20.1
2016-12-29T23:46:05.161Z,20.1
2016-12-29T23:48:04.993Z,20.1
2016-12-29T23:50:04.999Z,20.1
2016-12-29T23:52:04.850Z,20.1
2016-12-29T23:54:05.561Z,20
2016-12-29T23:56:05.290Z,20
2016-12-29T23:58:05.189Z,20
